sensor_id;sensor_type;location;lat;lon;timestamp;P1;durP1;ratioP1;P2;durP2;ratioP2
37299;SDS011;23184;51.902;12.836;2023-04-12T00:02:21;5.15;;;1.85;;
37299;SDS011;23184;51.902;12.836;2023-04-12T00:04:47;4.30;;;1.95;;
37299;SDS011;23184;51.902;12.836;2023-04-12T00:07:19;5.68;;;2.05;;
37299;SDS011;23184;51.902;12.836;2023-04-12T00:09:45;7.63;;;1.80;;
37299;SDS011;23184;51.902;12.836;2023-04-12T00:12:11;4.05;;;1.80;;
37299;SDS011;23184;51.902;12.836;2023-04-12T00:14:36;4.47;;;2.03;;
37299;SDS011;23184;51.902;12.836;2023-04-12T00:17:02;6.30;;;2.15;;
37299;SDS011;23184;51.902;12.836;2023-04-12T00:19:27;9.27;;;2.47;;
37299;SDS011;23184;51.902;12.836;2023-04-12T00:21:54;4.20;;;1.92;;
37299;SDS011;23184;51.902;12.836;2023-04-12T00:24:20;7.32;;;1.90;;
37299;SDS011;23184;51.902;12.836;2023-04-12T00:26:46;4.75;;;1.95;;
37299;SDS011;23184;51.902;12.836;2023-04-12T00:29:11;6.18;;;1.98;;
37299;SDS011;23184;51.902;12.836;2023-04-12T00:31:37;10.65;;;2.67;;
37299;SDS011;23184;51.902;12.836;2023-04-12T00:34:02;5.63;;;2.50;;
37299;SDS011;23184;51.902;12.836;2023-04-12T00:36:28;4.80;;;2.15;;
37299;SDS011;23184;51.902;12.836;2023-04-12T00:38:53;5.32;;;1.83;;
37299;SDS011;23184;51.902;12.836;2023-04-12T00:41:19;5.55;;;2.67;;
37299;SDS011;23184;51.902;12.836;2023-04-12T00:43:44;5.93;;;1.67;;
37299;SDS011;23184;51.902;12.836;2023-04-12T00:46:11;5.22;;;1.83;;
37299;SDS011;23184;51.902;12.836;2023-04-12T00:48:36;8.32;;;2.10;;
37299;SDS011;23184;51.902;12.836;2023-04-12T00:51:02;3.67;;;1.60;;
37299;SDS011;23184;51.902;12.836;2023-04-12T00:53:31;3.97;;;1.80;;
37299;SDS011;23184;51.902;12.836;2023-04-12T00:55:57;4.60;;;1.70;;
37299;SDS011;23184;51.902;12.836;2023-04-12T00:58:23;2.40;;;1.80;;
37299;SDS011;23184;51.902;12.836;2023-04-12T01:00:48;5.28;;;1.85;;
37299;SDS011;23184;51.902;12.836;2023-04-12T01:03:16;5.00;;;2.10;;
37299;SDS011;23184;51.902;12.836;2023-04-12T01:11:19;7.03;;;1.90;;
37299;SDS011;23184;51.902;12.836;2023-04-12T01:14:10;4.75;;;2.08;;
37299;SDS011;23184;51.902;12.836;2023-04-12T01:16:55;5.72;;;2.10;;
37299;SDS011;23184;51.902;12.836;2023-04-12T01:19:32;3.72;;;1.80;;
37299;SDS011;23184;51.902;12.836;2023-04-12T01:28:00;5.32;;;2.30;;
37299;SDS011;23184;51.902;12.836;2023-04-12T01:30:27;3.90;;;1.85;;
37299;SDS011;23184;51.902;12.836;2023-04-12T01:32:54;3.85;;;2.08;;
37299;SDS011;23184;51.902;12.836;2023-04-12T01:38:43;5.03;;;2.13;;
37299;SDS011;23184;51.902;12.836;2023-04-12T01:41:09;8.85;;;3.10;;
37299;SDS011;23184;51.902;12.836;2023-04-12T01:43:41;4.70;;;2.53;;
37299;SDS011;23184;51.902;12.836;2023-04-12T01:46:08;5.65;;;3.45;;
37299;SDS011;23184;51.902;12.836;2023-04-12T01:48:35;6.63;;;2.40;;
37299;SDS011;23184;51.902;12.836;2023-04-12T01:53:32;8.63;;;2.60;;
37299;SDS011;23184;51.902;12.836;2023-04-12T01:56:07;5.10;;;2.47;;
37299;SDS011;23184;51.902;12.836;2023-04-12T01:58:33;7.78;;;3.30;;
37299;SDS011;23184;51.902;12.836;2023-04-12T02:01:01;6.53;;;2.85;;
37299;SDS011;23184;51.902;12.836;2023-04-12T02:03:27;8.18;;;2.97;;
37299;SDS011;23184;51.902;12.836;2023-04-12T02:05:57;6.10;;;2.72;;
37299;SDS011;23184;51.902;12.836;2023-04-12T02:08:24;7.78;;;2.85;;
37299;SDS011;23184;51.902;12.836;2023-04-12T02:10:50;6.38;;;3.22;;
37299;SDS011;23184;51.902;12.836;2023-04-12T02:13:15;5.22;;;3.20;;
37299;SDS011;23184;51.902;12.836;2023-04-12T02:15:43;9.85;;;3.80;;
37299;SDS011;23184;51.902;12.836;2023-04-12T02:18:09;5.75;;;3.33;;
37299;SDS011;23184;51.902;12.836;2023-04-12T02:20:35;6.55;;;2.90;;
37299;SDS011;23184;51.902;12.836;2023-04-12T02:23:01;5.68;;;2.72;;
37299;SDS011;23184;51.902;12.836;2023-04-12T02:25:26;4.50;;;2.50;;
37299;SDS011;23184;51.902;12.836;2023-04-12T02:27:52;4.35;;;2.20;;
37299;SDS011;23184;51.902;12.836;2023-04-12T02:30:17;4.80;;;2.58;;
37299;SDS011;23184;51.902;12.836;2023-04-12T02:32:44;3.53;;;2.03;;
37299;SDS011;23184;51.902;12.836;2023-04-12T02:35:13;3.47;;;2.25;;
37299;SDS011;23184;51.902;12.836;2023-04-12T02:37:43;5.30;;;2.22;;
37299;SDS011;23184;51.902;12.836;2023-04-12T02:40:10;2.72;;;1.88;;
37299;SDS011;23184;51.902;12.836;2023-04-12T02:42:38;5.43;;;3.45;;
37299;SDS011;23184;51.902;12.836;2023-04-12T02:45:03;4.55;;;2.45;;
37299;SDS011;23184;51.902;12.836;2023-04-12T02:47:30;3.60;;;2.15;;
37299;SDS011;23184;51.902;12.836;2023-04-12T02:49:55;4.70;;;2.40;;
37299;SDS011;23184;51.902;12.836;2023-04-12T02:52:21;5.32;;;3.00;;
37299;SDS011;23184;51.902;12.836;2023-04-12T02:54:48;5.95;;;2.83;;
37299;SDS011;23184;51.902;12.836;2023-04-12T02:57:14;8.10;;;3.50;;
37299;SDS011;23184;51.902;12.836;2023-04-12T02:59:40;9.43;;;3.60;;
37299;SDS011;23184;51.902;12.836;2023-04-12T03:02:05;9.73;;;3.65;;
37299;SDS011;23184;51.902;12.836;2023-04-12T03:04:31;7.72;;;4.03;;
37299;SDS011;23184;51.902;12.836;2023-04-12T03:06:57;10.23;;;4.97;;
37299;SDS011;23184;51.902;12.836;2023-04-12T03:09:23;7.80;;;4.15;;
37299;SDS011;23184;51.902;12.836;2023-04-12T03:11:49;5.45;;;3.83;;
37299;SDS011;23184;51.902;12.836;2023-04-12T03:14:15;8.85;;;3.90;;
37299;SDS011;23184;51.902;12.836;2023-04-12T03:16:40;8.07;;;3.97;;
37299;SDS011;23184;51.902;12.836;2023-04-12T03:19:07;9.13;;;4.57;;
37299;SDS011;23184;51.902;12.836;2023-04-12T03:21:32;9.32;;;4.20;;
37299;SDS011;23184;51.902;12.836;2023-04-12T03:23:58;8.23;;;3.97;;
37299;SDS011;23184;51.902;12.836;2023-04-12T03:26:24;6.82;;;4.22;;
37299;SDS011;23184;51.902;12.836;2023-04-12T03:28:50;8.07;;;3.40;;
37299;SDS011;23184;51.902;12.836;2023-04-12T03:31:19;7.43;;;3.83;;
37299;SDS011;23184;51.902;12.836;2023-04-12T03:33:45;8.32;;;3.83;;
37299;SDS011;23184;51.902;12.836;2023-04-12T03:36:11;11.30;;;4.28;;
37299;SDS011;23184;51.902;12.836;2023-04-12T03:38:36;8.07;;;4.47;;
37299;SDS011;23184;51.902;12.836;2023-04-12T03:41:02;10.18;;;4.43;;
37299;SDS011;23184;51.902;12.836;2023-04-12T03:43:27;7.45;;;3.55;;
37299;SDS011;23184;51.902;12.836;2023-04-12T03:45:59;11.80;;;3.10;;
37299;SDS011;23184;51.902;12.836;2023-04-12T03:48:25;5.43;;;2.88;;
37299;SDS011;23184;51.902;12.836;2023-04-12T03:50:51;7.57;;;3.00;;
37299;SDS011;23184;51.902;12.836;2023-04-12T03:53:19;7.45;;;3.50;;
37299;SDS011;23184;51.902;12.836;2023-04-12T03:55:45;5.90;;;3.33;;
37299;SDS011;23184;51.902;12.836;2023-04-12T03:58:11;8.80;;;3.85;;
37299;SDS011;23184;51.902;12.836;2023-04-12T04:00:40;9.18;;;4.40;;
37299;SDS011;23184;51.902;12.836;2023-04-12T04:03:07;7.75;;;4.20;;
37299;SDS011;23184;51.902;12.836;2023-04-12T04:05:32;7.53;;;4.43;;
37299;SDS011;23184;51.902;12.836;2023-04-12T04:07:58;10.52;;;4.00;;
37299;SDS011;23184;51.902;12.836;2023-04-12T04:10:26;6.07;;;3.75;;
37299;SDS011;23184;51.902;12.836;2023-04-12T04:12:52;13.40;;;4.65;;
37299;SDS011;23184;51.902;12.836;2023-04-12T04:15:18;14.13;;;4.60;;
37299;SDS011;23184;51.902;12.836;2023-04-12T04:17:44;20.40;;;7.55;;
37299;SDS011;23184;51.902;12.836;2023-04-12T04:20:12;44.33;;;15.52;;
37299;SDS011;23184;51.902;12.836;2023-04-12T04:22:37;43.45;;;17.50;;
37299;SDS011;23184;51.902;12.836;2023-04-12T04:25:03;35.83;;;14.63;;
37299;SDS011;23184;51.902;12.836;2023-04-12T04:27:30;14.05;;;7.07;;
37299;SDS011;23184;51.902;12.836;2023-04-12T04:29:58;12.13;;;4.35;;
37299;SDS011;23184;51.902;12.836;2023-04-12T04:32:26;9.77;;;4.72;;
37299;SDS011;23184;51.902;12.836;2023-04-12T04:34:54;9.77;;;3.90;;
37299;SDS011;23184;51.902;12.836;2023-04-12T04:37:20;9.77;;;3.95;;
37299;SDS011;23184;51.902;12.836;2023-04-12T04:39:45;9.50;;;4.65;;
37299;SDS011;23184;51.902;12.836;2023-04-12T04:42:11;8.82;;;4.00;;
37299;SDS011;23184;51.902;12.836;2023-04-12T04:44:37;10.68;;;4.40;;
37299;SDS011;23184;51.902;12.836;2023-04-12T04:47:02;20.17;;;5.60;;
37299;SDS011;23184;51.902;12.836;2023-04-12T04:49:28;8.88;;;3.58;;
37299;SDS011;23184;51.902;12.836;2023-04-12T04:51:54;11.07;;;3.55;;
37299;SDS011;23184;51.902;12.836;2023-04-12T04:54:20;6.53;;;3.10;;
37299;SDS011;23184;51.902;12.836;2023-04-12T04:56:45;7.68;;;3.78;;
37299;SDS011;23184;51.902;12.836;2023-04-12T04:59:10;6.53;;;3.90;;
37299;SDS011;23184;51.902;12.836;2023-04-12T05:01:36;8.90;;;3.53;;
37299;SDS011;23184;51.902;12.836;2023-04-12T05:04:02;8.88;;;3.75;;
37299;SDS011;23184;51.902;12.836;2023-04-12T05:06:27;7.93;;;3.38;;
37299;SDS011;23184;51.902;12.836;2023-04-12T05:08:53;5.20;;;2.83;;
37299;SDS011;23184;51.902;12.836;2023-04-12T05:11:19;9.20;;;3.38;;
37299;SDS011;23184;51.902;12.836;2023-04-12T05:13:45;8.15;;;3.35;;
37299;SDS011;23184;51.902;12.836;2023-04-12T05:16:10;9.85;;;3.35;;
37299;SDS011;23184;51.902;12.836;2023-04-12T05:18:36;6.03;;;3.25;;
37299;SDS011;23184;51.902;12.836;2023-04-12T05:21:02;8.38;;;3.85;;
37299;SDS011;23184;51.902;12.836;2023-04-12T05:23:28;10.18;;;3.78;;
37299;SDS011;23184;51.902;12.836;2023-04-12T05:25:53;6.38;;;3.00;;
37299;SDS011;23184;51.902;12.836;2023-04-12T05:28:19;8.02;;;3.33;;
37299;SDS011;23184;51.902;12.836;2023-04-12T05:30:45;8.05;;;3.53;;
37299;SDS011;23184;51.902;12.836;2023-04-12T05:33:10;11.10;;;4.10;;
37299;SDS011;23184;51.902;12.836;2023-04-12T05:35:36;7.03;;;3.70;;
37299;SDS011;23184;51.902;12.836;2023-04-12T05:38:02;8.68;;;3.30;;
37299;SDS011;23184;51.902;12.836;2023-04-12T05:40:28;10.70;;;4.05;;
37299;SDS011;23184;51.902;12.836;2023-04-12T05:42:55;6.28;;;2.92;;
37299;SDS011;23184;51.902;12.836;2023-04-12T05:45:21;5.55;;;3.03;;
37299;SDS011;23184;51.902;12.836;2023-04-12T05:47:46;6.32;;;3.17;;
37299;SDS011;23184;51.902;12.836;2023-04-12T05:50:12;7.00;;;2.80;;
37299;SDS011;23184;51.902;12.836;2023-04-12T05:52:37;8.65;;;3.45;;
37299;SDS011;23184;51.902;12.836;2023-04-12T05:55:03;4.40;;;2.80;;
37299;SDS011;23184;51.902;12.836;2023-04-12T05:57:29;6.07;;;3.30;;
37299;SDS011;23184;51.902;12.836;2023-04-12T05:59:54;5.82;;;3.03;;
37299;SDS011;23184;51.902;12.836;2023-04-12T06:02:20;5.05;;;2.75;;
37299;SDS011;23184;51.902;12.836;2023-04-12T06:04:46;5.22;;;2.70;;
37299;SDS011;23184;51.902;12.836;2023-04-12T06:07:12;5.88;;;2.97;;
37299;SDS011;23184;51.902;12.836;2023-04-12T06:09:40;4.82;;;2.80;;
37299;SDS011;23184;51.902;12.836;2023-04-12T06:12:06;7.07;;;2.38;;
37299;SDS011;23184;51.902;12.836;2023-04-12T06:14:32;8.23;;;2.60;;
37299;SDS011;23184;51.902;12.836;2023-04-12T06:16:57;6.45;;;2.60;;
37299;SDS011;23184;51.902;12.836;2023-04-12T06:19:23;5.47;;;2.63;;
37299;SDS011;23184;51.902;12.836;2023-04-12T06:21:48;7.25;;;2.70;;
37299;SDS011;23184;51.902;12.836;2023-04-12T06:24:15;5.28;;;2.40;;
37299;SDS011;23184;51.902;12.836;2023-04-12T06:26:41;5.20;;;2.78;;
37299;SDS011;23184;51.902;12.836;2023-04-12T06:29:10;10.15;;;2.90;;
37299;SDS011;23184;51.902;12.836;2023-04-12T06:31:36;8.93;;;3.08;;
37299;SDS011;23184;51.902;12.836;2023-04-12T06:34:01;5.85;;;2.33;;
37299;SDS011;23184;51.902;12.836;2023-04-12T06:36:28;6.97;;;2.30;;
37299;SDS011;23184;51.902;12.836;2023-04-12T06:38:53;5.90;;;2.65;;
37299;SDS011;23184;51.902;12.836;2023-04-12T06:41:19;4.53;;;2.60;;
37299;SDS011;23184;51.902;12.836;2023-04-12T06:43:45;5.03;;;2.50;;
37299;SDS011;23184;51.902;12.836;2023-04-12T06:46:11;6.40;;;2.92;;
37299;SDS011;23184;51.902;12.836;2023-04-12T06:48:39;6.78;;;2.30;;
37299;SDS011;23184;51.902;12.836;2023-04-12T06:51:05;5.55;;;2.50;;
37299;SDS011;23184;51.902;12.836;2023-04-12T06:53:31;7.85;;;3.08;;
37299;SDS011;23184;51.902;12.836;2023-04-12T06:56:02;6.95;;;2.90;;
37299;SDS011;23184;51.902;12.836;2023-04-12T06:58:28;6.15;;;2.33;;
37299;SDS011;23184;51.902;12.836;2023-04-12T07:01:02;5.22;;;2.42;;
37299;SDS011;23184;51.902;12.836;2023-04-12T07:03:29;4.18;;;2.10;;
37299;SDS011;23184;51.902;12.836;2023-04-12T07:05:57;4.47;;;2.17;;
37299;SDS011;23184;51.902;12.836;2023-04-12T07:08:23;6.82;;;2.10;;
37299;SDS011;23184;51.902;12.836;2023-04-12T07:10:55;7.10;;;1.90;;
37299;SDS011;23184;51.902;12.836;2023-04-12T07:13:21;9.45;;;2.33;;
37299;SDS011;23184;51.902;12.836;2023-04-12T07:15:50;5.57;;;1.95;;
37299;SDS011;23184;51.902;12.836;2023-04-12T07:18:16;5.72;;;1.98;;
37299;SDS011;23184;51.902;12.836;2023-04-12T07:20:42;3.78;;;1.83;;
37299;SDS011;23184;51.902;12.836;2023-04-12T07:23:07;6.43;;;2.17;;
37299;SDS011;23184;51.902;12.836;2023-04-12T07:25:36;5.03;;;2.03;;
37299;SDS011;23184;51.902;12.836;2023-04-12T07:28:02;4.10;;;1.90;;
37299;SDS011;23184;51.902;12.836;2023-04-12T07:30:28;6.82;;;1.73;;
37299;SDS011;23184;51.902;12.836;2023-04-12T07:32:54;5.13;;;1.90;;
37299;SDS011;23184;51.902;12.836;2023-04-12T07:35:19;9.23;;;2.20;;
37299;SDS011;23184;51.902;12.836;2023-04-12T07:37:45;5.38;;;1.60;;
37299;SDS011;23184;51.902;12.836;2023-04-12T07:40:11;6.35;;;1.80;;
37299;SDS011;23184;51.902;12.836;2023-04-12T07:42:36;4.43;;;1.67;;
37299;SDS011;23184;51.902;12.836;2023-04-12T07:45:02;4.38;;;1.88;;
37299;SDS011;23184;51.902;12.836;2023-04-12T07:47:28;3.83;;;1.40;;
37299;SDS011;23184;51.902;12.836;2023-04-12T07:49:53;7.50;;;1.90;;
37299;SDS011;23184;51.902;12.836;2023-04-12T07:52:19;3.45;;;1.48;;
37299;SDS011;23184;51.902;12.836;2023-04-12T07:54:45;3.72;;;1.40;;
37299;SDS011;23184;51.902;12.836;2023-04-12T07:57:11;4.60;;;1.60;;
37299;SDS011;23184;51.902;12.836;2023-04-12T07:59:36;5.78;;;1.73;;
37299;SDS011;23184;51.902;12.836;2023-04-12T08:02:01;4.60;;;1.38;;
37299;SDS011;23184;51.902;12.836;2023-04-12T08:04:27;2.88;;;1.48;;
37299;SDS011;23184;51.902;12.836;2023-04-12T08:06:53;5.38;;;1.58;;
37299;SDS011;23184;51.902;12.836;2023-04-12T08:09:19;3.25;;;1.15;;
37299;SDS011;23184;51.902;12.836;2023-04-12T08:11:44;5.10;;;1.77;;
37299;SDS011;23184;51.902;12.836;2023-04-12T08:14:11;5.30;;;1.33;;
37299;SDS011;23184;51.902;12.836;2023-04-12T08:16:37;4.53;;;1.45;;
37299;SDS011;23184;51.902;12.836;2023-04-12T08:19:02;5.05;;;1.42;;
37299;SDS011;23184;51.902;12.836;2023-04-12T08:21:28;5.40;;;1.42;;
37299;SDS011;23184;51.902;12.836;2023-04-12T08:23:54;3.90;;;1.58;;
37299;SDS011;23184;51.902;12.836;2023-04-12T08:26:20;4.25;;;1.73;;
37299;SDS011;23184;51.902;12.836;2023-04-12T08:28:45;5.32;;;1.50;;
37299;SDS011;23184;51.902;12.836;2023-04-12T08:31:12;6.18;;;1.70;;
37299;SDS011;23184;51.902;12.836;2023-04-12T08:33:38;5.72;;;1.35;;
37299;SDS011;23184;51.902;12.836;2023-04-12T08:36:04;5.93;;;1.63;;
37299;SDS011;23184;51.902;12.836;2023-04-12T08:38:29;7.40;;;2.47;;
37299;SDS011;23184;51.902;12.836;2023-04-12T08:40:55;6.30;;;1.50;;
37299;SDS011;23184;51.902;12.836;2023-04-12T08:43:21;4.72;;;1.70;;
37299;SDS011;23184;51.902;12.836;2023-04-12T08:45:52;5.93;;;1.70;;
37299;SDS011;23184;51.902;12.836;2023-04-12T08:48:18;4.60;;;1.40;;
37299;SDS011;23184;51.902;12.836;2023-04-12T08:50:46;10.65;;;1.88;;
37299;SDS011;23184;51.902;12.836;2023-04-12T08:53:12;4.63;;;2.10;;
37299;SDS011;23184;51.902;12.836;2023-04-12T08:55:38;6.10;;;1.88;;
37299;SDS011;23184;51.902;12.836;2023-04-12T08:58:03;8.50;;;1.77;;
37299;SDS011;23184;51.902;12.836;2023-04-12T09:00:32;4.65;;;1.92;;
37299;SDS011;23184;51.902;12.836;2023-04-12T09:02:58;4.47;;;1.80;;
37299;SDS011;23184;51.902;12.836;2023-04-12T09:05:27;5.18;;;1.73;;
37299;SDS011;23184;51.902;12.836;2023-04-12T09:07:54;5.15;;;1.80;;
37299;SDS011;23184;51.902;12.836;2023-04-12T09:10:30;4.95;;;1.70;;
37299;SDS011;23184;51.902;12.836;2023-04-12T09:12:58;5.82;;;1.70;;
37299;SDS011;23184;51.902;12.836;2023-04-12T09:15:24;4.28;;;1.85;;
37299;SDS011;23184;51.902;12.836;2023-04-12T09:18:01;7.00;;;2.10;;
37299;SDS011;23184;51.902;12.836;2023-04-12T09:20:34;6.07;;;2.38;;
37299;SDS011;23184;51.902;12.836;2023-04-12T09:23:00;5.38;;;2.10;;
37299;SDS011;23184;51.902;12.836;2023-04-12T09:25:41;4.70;;;2.10;;
37299;SDS011;23184;51.902;12.836;2023-04-12T09:30:51;4.35;;;1.80;;
37299;SDS011;23184;51.902;12.836;2023-04-12T09:33:18;5.88;;;1.70;;
37299;SDS011;23184;51.902;12.836;2023-04-12T09:35:45;4.68;;;2.00;;
37299;SDS011;23184;51.902;12.836;2023-04-12T09:38:10;5.88;;;1.90;;
37299;SDS011;23184;51.902;12.836;2023-04-12T09:40:36;4.70;;;1.83;;
37299;SDS011;23184;51.902;12.836;2023-04-12T09:43:02;7.60;;;2.28;;
37299;SDS011;23184;51.902;12.836;2023-04-12T09:45:28;7.25;;;1.65;;
37299;SDS011;23184;51.902;12.836;2023-04-12T09:47:57;5.03;;;1.85;;
37299;SDS011;23184;51.902;12.836;2023-04-12T09:50:24;5.60;;;2.13;;
37299;SDS011;23184;51.902;12.836;2023-04-12T09:52:52;7.93;;;2.20;;
37299;SDS011;23184;51.902;12.836;2023-04-12T09:55:20;5.70;;;2.10;;
37299;SDS011;23184;51.902;12.836;2023-04-12T09:57:46;4.00;;;1.83;;
37299;SDS011;23184;51.902;12.836;2023-04-12T10:00:15;9.07;;;2.40;;
37299;SDS011;23184;51.902;12.836;2023-04-12T10:02:41;4.32;;;1.65;;
37299;SDS011;23184;51.902;12.836;2023-04-12T10:05:09;8.20;;;2.42;;
37299;SDS011;23184;51.902;12.836;2023-04-12T10:07:37;5.07;;;2.05;;
37299;SDS011;23184;51.902;12.836;2023-04-12T10:10:09;4.85;;;1.90;;
37299;SDS011;23184;51.902;12.836;2023-04-12T10:12:39;4.88;;;2.03;;
37299;SDS011;23184;51.902;12.836;2023-04-12T10:15:06;5.28;;;2.00;;
37299;SDS011;23184;51.902;12.836;2023-04-12T10:17:47;4.65;;;1.67;;
37299;SDS011;23184;51.902;12.836;2023-04-12T10:20:15;6.63;;;1.65;;
37299;SDS011;23184;51.902;12.836;2023-04-12T10:22:42;4.15;;;1.90;;
37299;SDS011;23184;51.902;12.836;2023-04-12T10:25:12;7.07;;;1.85;;
37299;SDS011;23184;51.902;12.836;2023-04-12T10:27:40;3.42;;;1.67;;
37299;SDS011;23184;51.902;12.836;2023-04-12T10:35:29;5.88;;;1.70;;
37299;SDS011;23184;51.902;12.836;2023-04-12T10:38:15;6.38;;;1.67;;
37299;SDS011;23184;51.902;12.836;2023-04-12T10:43:39;7.70;;;1.85;;
37299;SDS011;23184;51.902;12.836;2023-04-12T10:49:08;4.65;;;1.40;;
37299;SDS011;23184;51.902;12.836;2023-04-12T10:51:35;5.97;;;1.87;;
37299;SDS011;23184;51.902;12.836;2023-04-12T10:56:36;4.13;;;1.70;;
37299;SDS011;23184;51.902;12.836;2023-04-12T10:59:04;4.32;;;1.48;;
37299;SDS011;23184;51.902;12.836;2023-04-12T11:01:30;6.18;;;1.98;;
37299;SDS011;23184;51.902;12.836;2023-04-12T11:09:21;5.85;;;1.30;;
37299;SDS011;23184;51.902;12.836;2023-04-12T11:11:49;7.72;;;1.77;;
37299;SDS011;23184;51.902;12.836;2023-04-12T11:14:15;3.67;;;1.50;;
37299;SDS011;23184;51.902;12.836;2023-04-12T11:19:29;6.57;;;1.92;;
37299;SDS011;23184;51.902;12.836;2023-04-12T11:22:00;8.27;;;1.73;;
37299;SDS011;23184;51.902;12.836;2023-04-12T11:24:28;8.25;;;1.60;;
37299;SDS011;23184;51.902;12.836;2023-04-12T11:26:55;5.72;;;1.42;;
37299;SDS011;23184;51.902;12.836;2023-04-12T11:29:27;5.03;;;1.67;;
37299;SDS011;23184;51.902;12.836;2023-04-12T11:31:53;4.85;;;1.90;;
37299;SDS011;23184;51.902;12.836;2023-04-12T11:34:21;7.78;;;1.83;;
37299;SDS011;23184;51.902;12.836;2023-04-12T11:36:53;7.72;;;1.50;;
37299;SDS011;23184;51.902;12.836;2023-04-12T11:39:19;4.43;;;1.30;;
37299;SDS011;23184;51.902;12.836;2023-04-12T11:41:48;5.03;;;1.33;;
37299;SDS011;23184;51.902;12.836;2023-04-12T11:44:14;5.75;;;1.30;;
37299;SDS011;23184;51.902;12.836;2023-04-12T11:46:43;6.43;;;1.45;;
37299;SDS011;23184;51.902;12.836;2023-04-12T11:49:09;7.15;;;1.90;;
37299;SDS011;23184;51.902;12.836;2023-04-12T11:51:40;6.60;;;1.52;;
37299;SDS011;23184;51.902;12.836;2023-04-12T11:54:05;4.70;;;1.50;;
37299;SDS011;23184;51.902;12.836;2023-04-12T11:56:31;3.22;;;1.50;;
37299;SDS011;23184;51.902;12.836;2023-04-12T11:58:56;2.72;;;1.00;;
37299;SDS011;23184;51.902;12.836;2023-04-12T12:01:22;6.18;;;1.48;;
37299;SDS011;23184;51.902;12.836;2023-04-12T12:03:48;6.45;;;1.40;;
37299;SDS011;23184;51.902;12.836;2023-04-12T12:06:14;6.55;;;1.42;;
37299;SDS011;23184;51.902;12.836;2023-04-12T12:08:40;7.03;;;1.92;;
37299;SDS011;23184;51.902;12.836;2023-04-12T12:11:06;5.80;;;1.52;;
37299;SDS011;23184;51.902;12.836;2023-04-12T12:13:48;5.07;;;1.38;;
37299;SDS011;23184;51.902;12.836;2023-04-12T12:16:15;3.88;;;1.10;;
37299;SDS011;23184;51.902;12.836;2023-04-12T12:18:45;4.35;;;1.23;;
37299;SDS011;23184;51.902;12.836;2023-04-12T12:21:12;4.10;;;0.95;;
37299;SDS011;23184;51.902;12.836;2023-04-12T12:23:40;6.55;;;1.33;;
37299;SDS011;23184;51.902;12.836;2023-04-12T12:26:07;1.85;;;0.98;;
37299;SDS011;23184;51.902;12.836;2023-04-12T12:28:36;5.88;;;1.48;;
37299;SDS011;23184;51.902;12.836;2023-04-12T12:31:06;3.80;;;1.00;;
37299;SDS011;23184;51.902;12.836;2023-04-12T12:33:37;4.97;;;1.35;;
37299;SDS011;23184;51.902;12.836;2023-04-12T12:36:03;5.68;;;1.05;;
37299;SDS011;23184;51.902;12.836;2023-04-12T12:38:36;9.35;;;1.40;;
37299;SDS011;23184;51.902;12.836;2023-04-12T12:41:17;4.15;;;1.02;;
37299;SDS011;23184;51.902;12.836;2023-04-12T12:43:48;8.30;;;1.20;;
37299;SDS011;23184;51.902;12.836;2023-04-12T12:46:15;3.40;;;1.17;;
37299;SDS011;23184;51.902;12.836;2023-04-12T12:48:44;3.88;;;1.00;;
37299;SDS011;23184;51.902;12.836;2023-04-12T12:51:11;7.07;;;1.63;;
37299;SDS011;23184;51.902;12.836;2023-04-12T12:53:38;7.25;;;1.63;;
37299;SDS011;23184;51.902;12.836;2023-04-12T12:56:05;6.53;;;1.60;;
37299;SDS011;23184;51.902;12.836;2023-04-12T12:58:32;5.47;;;1.50;;
37299;SDS011;23184;51.902;12.836;2023-04-12T13:00:58;4.65;;;1.60;;
37299;SDS011;23184;51.902;12.836;2023-04-12T13:03:24;5.68;;;1.85;;
37299;SDS011;23184;51.902;12.836;2023-04-12T13:05:49;5.97;;;1.50;;
37299;SDS011;23184;51.902;12.836;2023-04-12T13:08:15;4.38;;;1.13;;
37299;SDS011;23184;51.902;12.836;2023-04-12T13:10:41;4.75;;;1.20;;
37299;SDS011;23184;51.902;12.836;2023-04-12T13:13:06;5.43;;;0.85;;
37299;SDS011;23184;51.902;12.836;2023-04-12T13:15:32;5.25;;;1.40;;
37299;SDS011;23184;51.902;12.836;2023-04-12T13:17:58;5.15;;;1.42;;
37299;SDS011;23184;51.902;12.836;2023-04-12T13:20:23;5.20;;;1.27;;
37299;SDS011;23184;51.902;12.836;2023-04-12T13:22:50;6.15;;;1.50;;
37299;SDS011;23184;51.902;12.836;2023-04-12T13:25:16;4.43;;;1.45;;
37299;SDS011;23184;51.902;12.836;2023-04-12T13:27:43;8.45;;;2.22;;
37299;SDS011;23184;51.902;12.836;2023-04-12T13:30:09;5.32;;;1.60;;
37299;SDS011;23184;51.902;12.836;2023-04-12T13:32:35;4.10;;;1.60;;
37299;SDS011;23184;51.902;12.836;2023-04-12T13:35:01;7.68;;;1.73;;
37299;SDS011;23184;51.902;12.836;2023-04-12T13:37:27;3.83;;;1.27;;
37299;SDS011;23184;51.902;12.836;2023-04-12T13:39:52;7.18;;;1.67;;
37299;SDS011;23184;51.902;12.836;2023-04-12T13:42:18;4.97;;;1.40;;
37299;SDS011;23184;51.902;12.836;2023-04-12T13:44:44;7.03;;;1.60;;
37299;SDS011;23184;51.902;12.836;2023-04-12T13:47:09;9.60;;;2.67;;
37299;SDS011;23184;51.902;12.836;2023-04-12T13:49:35;8.70;;;2.33;;
37299;SDS011;23184;51.902;12.836;2023-04-12T13:52:01;7.88;;;2.10;;
37299;SDS011;23184;51.902;12.836;2023-04-12T13:54:27;16.20;;;5.55;;
37299;SDS011;23184;51.902;12.836;2023-04-12T13:56:52;15.07;;;7.10;;
37299;SDS011;23184;51.902;12.836;2023-04-12T13:59:18;22.58;;;9.98;;
37299;SDS011;23184;51.902;12.836;2023-04-12T14:01:43;14.75;;;6.65;;
37299;SDS011;23184;51.902;12.836;2023-04-12T14:04:08;14.07;;;5.00;;
37299;SDS011;23184;51.902;12.836;2023-04-12T14:06:34;17.60;;;6.20;;
37299;SDS011;23184;51.902;12.836;2023-04-12T14:09:00;20.95;;;7.13;;
37299;SDS011;23184;51.902;12.836;2023-04-12T14:11:26;15.82;;;6.10;;
37299;SDS011;23184;51.902;12.836;2023-04-12T14:13:51;11.95;;;2.83;;
37299;SDS011;23184;51.902;12.836;2023-04-12T14:16:17;11.15;;;2.60;;
37299;SDS011;23184;51.902;12.836;2023-04-12T14:18:42;6.25;;;2.10;;
37299;SDS011;23184;51.902;12.836;2023-04-12T14:21:08;6.15;;;1.75;;
37299;SDS011;23184;51.902;12.836;2023-04-12T14:23:34;5.72;;;2.10;;
37299;SDS011;23184;51.902;12.836;2023-04-12T14:25:59;7.43;;;2.80;;
37299;SDS011;23184;51.902;12.836;2023-04-12T14:28:25;5.20;;;2.25;;
37299;SDS011;23184;51.902;12.836;2023-04-12T14:30:55;5.97;;;2.90;;
37299;SDS011;23184;51.902;12.836;2023-04-12T14:33:25;6.68;;;2.97;;
37299;SDS011;23184;51.902;12.836;2023-04-12T14:35:51;4.57;;;2.85;;
37299;SDS011;23184;51.902;12.836;2023-04-12T14:38:17;5.95;;;2.78;;
37299;SDS011;23184;51.902;12.836;2023-04-12T14:40:43;5.32;;;2.47;;
37299;SDS011;23184;51.902;12.836;2023-04-12T14:43:08;5.22;;;2.75;;
37299;SDS011;23184;51.902;12.836;2023-04-12T14:45:35;4.65;;;2.60;;
37299;SDS011;23184;51.902;12.836;2023-04-12T14:48:01;7.30;;;3.13;;
37299;SDS011;23184;51.902;12.836;2023-04-12T14:50:26;5.30;;;2.60;;
37299;SDS011;23184;51.902;12.836;2023-04-12T14:52:52;5.00;;;2.75;;
37299;SDS011;23184;51.902;12.836;2023-04-12T14:55:18;6.60;;;2.38;;
37299;SDS011;23184;51.902;12.836;2023-04-12T14:57:44;4.50;;;2.10;;
37299;SDS011;23184;51.902;12.836;2023-04-12T15:00:10;4.78;;;1.80;;
37299;SDS011;23184;51.902;12.836;2023-04-12T15:02:40;5.53;;;1.45;;
37299;SDS011;23184;51.902;12.836;2023-04-12T15:05:09;6.20;;;1.90;;
37299;SDS011;23184;51.902;12.836;2023-04-12T15:07:35;4.35;;;2.20;;
37299;SDS011;23184;51.902;12.836;2023-04-12T15:10:01;4.10;;;1.77;;
37299;SDS011;23184;51.902;12.836;2023-04-12T15:12:29;5.32;;;2.10;;
37299;SDS011;23184;51.902;12.836;2023-04-12T15:14:57;4.70;;;1.88;;